createdAt,value
2023-05-11T00:00:31.531Z,6.03
2023-05-11T00:01:06.039Z,6.22
2023-05-11T00:01:38.549Z,6.70
2023-05-11T00:02:12.808Z,6.47
2023-05-11T00:02:46.467Z,6.75
2023-05-11T00:03:19.297Z,6.68
2023-05-11T00:03:52.079Z,6.25
2023-05-11T00:04:24.853Z,6.57
2023-05-11T00:04:58.598Z,6.88
2023-05-11T00:05:31.337Z,7.05
2023-05-11T00:06:05.152Z,7.15
2023-05-11T00:06:38.057Z,6.32
2023-05-11T00:07:10.720Z,6.72
2023-05-11T00:07:43.384Z,6.38
2023-05-11T00:08:17.578Z,6.60
2023-05-11T00:08:51.976Z,6.72
2023-05-11T00:09:24.578Z,6.18
2023-05-11T00:09:58.215Z,6.95
2023-05-11T00:10:31.210Z,6.45
2023-05-11T00:11:07.465Z,6.38
2023-05-11T00:11:41.167Z,5.72
2023-05-11T00:12:14.289Z,5.88
2023-05-11T00:12:46.815Z,6.53
2023-05-11T00:13:21.748Z,6.28
2023-05-11T00:13:55.746Z,6.28
2023-05-11T00:14:28.440Z,6.45
2023-05-11T00:15:02.074Z,6.47
2023-05-11T00:15:38.325Z,6.70
2023-05-11T00:16:11.440Z,6.75
2023-05-11T00:16:45.181Z,6.20
2023-05-11T00:17:19.573Z,6.88
2023-05-11T00:17:52.157Z,6.30
2023-05-11T00:18:25.976Z,6.40
2023-05-11T00:18:58.721Z,6.82
2023-05-11T00:19:31.790Z,7.07
2023-05-11T00:20:06.408Z,7.25
2023-05-11T00:20:38.962Z,6.32
2023-05-11T00:21:11.530Z,6.85
2023-05-11T00:21:45.274Z,6.28
2023-05-11T00:22:18.035Z,6.88
2023-05-11T00:22:50.599Z,6.65
2023-05-11T00:23:23.239Z,6.90
2023-05-11T00:23:57.127Z,6.60
2023-05-11T00:24:30.054Z,7.53
2023-05-11T00:25:02.740Z,7.45
2023-05-11T00:25:36.482Z,6.68
2023-05-11T00:26:09.101Z,7.60
2023-05-11T00:26:42.371Z,6.80
2023-05-11T00:27:15.943Z,6.45
2023-05-11T00:27:48.737Z,6.90
2023-05-11T00:28:21.330Z,6.75
2023-05-11T00:28:57.542Z,7.03
2023-05-11T00:29:30.112Z,6.55
2023-05-11T00:30:02.754Z,6.40
2023-05-11T00:30:36.484Z,6.53
2023-05-11T00:31:09.114Z,6.57
2023-05-11T00:31:42.267Z,6.15
2023-05-11T00:32:15.912Z,6.88
2023-05-11T00:32:49.288Z,7.05
2023-05-11T00:33:22.338Z,6.80
2023-05-11T00:33:56.762Z,6.47
2023-05-11T00:34:30.360Z,6.85
2023-05-11T00:35:03.024Z,7.05
2023-05-11T00:35:36.500Z,6.00
2023-05-11T00:36:10.421Z,6.32
2023-05-11T00:36:43.716Z,6.68
2023-05-11T00:37:16.295Z,6.80
2023-05-11T00:37:49.859Z,7.05
2023-05-11T00:38:22.359Z,6.95
2023-05-11T00:38:55.328Z,6.68
2023-05-11T00:39:28.999Z,6.80
2023-05-11T00:40:01.631Z,6.63
2023-05-11T00:40:34.496Z,7.70
2023-05-11T00:41:07.397Z,6.68
2023-05-11T00:41:41.345Z,6.78
2023-05-11T00:42:14.035Z,7.75
2023-05-11T00:42:46.608Z,6.82
2023-05-11T00:43:20.149Z,6.75
2023-05-11T00:43:52.739Z,7.32
2023-05-11T00:44:27.069Z,6.82
2023-05-11T00:45:00.604Z,7.05
2023-05-11T00:45:33.490Z,6.50
2023-05-11T00:46:06.855Z,6.75
2023-05-11T00:46:40.792Z,7.38
2023-05-11T00:47:13.744Z,7.43
2023-05-11T00:47:46.901Z,6.57
2023-05-11T00:48:20.600Z,7.03
2023-05-11T00:48:55.792Z,7.53
2023-05-11T00:49:28.734Z,7.30
2023-05-11T00:50:02.519Z,7.13
2023-05-11T00:50:35.388Z,7.22
2023-05-11T00:51:08.254Z,6.68
2023-05-11T00:51:42.029Z,6.70
2023-05-11T00:52:14.917Z,7.22
2023-05-11T00:52:48.460Z,6.35
2023-05-11T00:53:22.253Z,7.18
2023-05-11T00:53:54.871Z,8.13
2023-05-11T00:54:27.886Z,6.72
2023-05-11T00:55:00.816Z,6.93
2023-05-11T00:55:34.465Z,7.32
2023-05-11T00:56:07.614Z,6.72
2023-05-11T00:56:40.636Z,6.57
2023-05-11T00:57:14.439Z,8.02
2023-05-11T00:57:47.476Z,6.72
2023-05-11T00:58:20.813Z,7.10
2023-05-11T00:58:54.498Z,6.47
2023-05-11T00:59:28.516Z,6.60
2023-05-11T01:00:02.844Z,7.20
2023-05-11T01:00:36.856Z,7.00
2023-05-11T01:01:10.603Z,7.00
2023-05-11T01:01:43.950Z,7.28
2023-05-11T01:02:17.744Z,6.90
2023-05-11T01:02:50.450Z,7.38
2023-05-11T01:03:23.203Z,7.05
2023-05-11T01:03:58.004Z,6.75
2023-05-11T01:04:31.665Z,6.90
2023-05-11T01:05:04.737Z,6.72
2023-05-11T01:05:49.607Z,8.05
2023-05-11T01:06:29.517Z,7.50
2023-05-11T01:07:11.334Z,7.18
2023-05-11T01:07:55.738Z,6.82
2023-05-11T01:08:39.413Z,7.25
2023-05-11T01:09:21.662Z,7.50
2023-05-11T01:10:02.789Z,7.60
2023-05-11T01:10:45.911Z,7.97
2023-05-11T01:11:25.115Z,8.00
2023-05-11T01:12:07.544Z,7.72
2023-05-11T01:12:48.313Z,6.88
2023-05-11T01:13:28.576Z,7.05
2023-05-11T01:14:16.866Z,7.13
2023-05-11T01:15:01.677Z,6.88
2023-05-11T01:15:44.902Z,6.95
2023-05-11T01:16:22.564Z,7.30
2023-05-11T01:17:07.069Z,7.18
2023-05-11T01:18:01.730Z,7.75
2023-05-11T01:18:39.927Z,6.20
2023-05-11T01:19:24.706Z,6.50
2023-05-11T01:20:06.211Z,6.85
2023-05-11T01:20:41.135Z,7.25
2023-05-11T01:21:16.018Z,7.07
2023-05-11T01:21:51.224Z,6.90
2023-05-11T01:22:39.249Z,7.18
2023-05-11T01:23:31.921Z,6.72
2023-05-11T01:24:21.634Z,6.80
2023-05-11T01:25:07.244Z,7.15
2023-05-11T01:25:53.512Z,6.57
2023-05-11T01:26:42.691Z,6.55
2023-05-11T01:27:32.036Z,7.43
2023-05-11T01:28:23.433Z,6.50
2023-05-11T01:29:25.117Z,7.25
2023-05-11T01:30:26.411Z,6.85
2023-05-11T01:31:07.117Z,6.90
2023-05-11T01:31:42.651Z,6.68
2023-05-11T01:32:21.250Z,7.43
2023-05-11T01:32:58.992Z,7.15
2023-05-11T01:33:34.428Z,7.22
2023-05-11T01:34:13.467Z,6.97
2023-05-11T01:34:47.638Z,6.60
2023-05-11T01:35:24.552Z,6.55
2023-05-11T01:36:02.833Z,7.60
2023-05-11T01:36:39.401Z,7.07
2023-05-11T01:37:17.712Z,7.18
2023-05-11T01:37:54.234Z,7.53
2023-05-11T01:38:32.916Z,6.72
2023-05-11T01:39:10.166Z,7.28
2023-05-11T01:39:50.981Z,7.50
2023-05-11T01:40:29.362Z,7.35
2023-05-11T01:41:09.126Z,7.10
2023-05-11T01:41:46.110Z,7.03
2023-05-11T01:42:23.731Z,7.80
2023-05-11T01:43:01.591Z,7.20
2023-05-11T01:43:37.219Z,6.82
2023-05-11T01:44:12.580Z,6.28
2023-05-11T01:44:51.886Z,7.78
2023-05-11T01:45:28.264Z,8.05
2023-05-11T01:46:04.095Z,7.45
2023-05-11T01:46:37.010Z,6.45
2023-05-11T01:47:10.791Z,7.55
2023-05-11T01:47:45.991Z,6.90
2023-05-11T01:48:23.914Z,7.93
2023-05-11T01:48:58.654Z,7.88
2023-05-11T01:49:36.232Z,6.60
2023-05-11T01:50:11.145Z,7.32
2023-05-11T01:50:46.133Z,6.85
2023-05-11T01:51:20.245Z,7.75
2023-05-11T01:51:56.289Z,6.88
2023-05-11T01:52:31.045Z,7.45
2023-05-11T01:53:05.436Z,7.03
2023-05-11T01:53:41.239Z,7.20
2023-05-11T01:54:14.756Z,7.03
2023-05-11T01:54:48.899Z,6.93
2023-05-11T01:55:25.008Z,7.20
2023-05-11T01:55:58.531Z,7.10
2023-05-11T01:56:34.758Z,6.82
2023-05-11T01:57:10.285Z,6.93
2023-05-11T01:57:43.689Z,6.47
2023-05-11T01:58:18.344Z,7.07
2023-05-11T01:58:52.974Z,6.78
2023-05-11T01:59:26.955Z,7.95
2023-05-11T02:00:00.299Z,8.20
2023-05-11T02:00:34.903Z,6.63
2023-05-11T02:01:12.247Z,7.22
2023-05-11T02:01:45.192Z,7.32
2023-05-11T02:02:19.974Z,7.80
2023-05-11T02:02:57.861Z,7.22
2023-05-11T02:03:32.084Z,6.82
2023-05-11T02:04:06.063Z,6.57
2023-05-11T02:04:41.617Z,8.10
2023-05-11T02:05:18.656Z,7.03
2023-05-11T02:05:52.744Z,7.35
2023-05-11T02:06:28.371Z,7.15
2023-05-11T02:07:04.145Z,7.03
2023-05-11T02:07:38.674Z,8.13
2023-05-11T02:08:13.909Z,6.93
2023-05-11T02:08:49.911Z,7.78
2023-05-11T02:09:23.921Z,6.75
2023-05-11T02:09:59.139Z,6.63
2023-05-11T02:10:34.572Z,7.22
2023-05-11T02:11:11.627Z,7.78
2023-05-11T02:11:47.316Z,7.63
2023-05-11T02:12:23.790Z,7.72
2023-05-11T02:12:59.547Z,7.05
2023-05-11T02:13:34.925Z,7.20
2023-05-11T02:14:10.198Z,7.82
2023-05-11T02:14:43.687Z,7.20
2023-05-11T02:15:18.763Z,7.57
2023-05-11T02:15:55.868Z,7.97
2023-05-11T02:16:32.711Z,7.93
2023-05-11T02:17:06.768Z,8.55
2023-05-11T02:17:40.296Z,6.72
2023-05-11T02:18:17.051Z,7.28
2023-05-11T02:18:51.590Z,7.35
2023-05-11T02:19:25.200Z,7.65
2023-05-11T02:19:59.042Z,6.85
2023-05-11T02:20:34.710Z,7.55
2023-05-11T02:21:09.458Z,8.07
2023-05-11T02:21:46.161Z,7.70
2023-05-11T02:22:20.726Z,7.50
2023-05-11T02:22:55.099Z,6.90
2023-05-11T02:23:31.088Z,7.55
2023-05-11T02:24:06.612Z,7.15
2023-05-11T02:24:40.125Z,8.10
2023-05-11T02:25:15.320Z,8.07
2023-05-11T02:25:50.201Z,7.78
2023-05-11T02:26:23.370Z,7.72
2023-05-11T02:26:59.085Z,7.53
2023-05-11T02:27:33.110Z,7.30
2023-05-11T02:28:06.251Z,8.20
2023-05-11T02:28:40.018Z,7.65
2023-05-11T02:29:12.712Z,8.23
2023-05-11T02:29:45.323Z,8.13
2023-05-11T02:30:19.351Z,7.38
2023-05-11T02:30:58.459Z,8.15
2023-05-11T02:31:36.803Z,7.80
2023-05-11T02:32:14.002Z,7.88
2023-05-11T02:32:51.732Z,6.78
2023-05-11T02:33:28.584Z,8.15
2023-05-11T02:34:09.160Z,6.85
2023-05-11T02:34:43.950Z,6.95
2023-05-11T02:35:22.345Z,7.28
2023-05-11T02:35:57.816Z,7.20
2023-05-11T02:36:36.052Z,6.93
2023-05-11T02:37:13.417Z,8.07
2023-05-11T02:37:49.590Z,7.13
2023-05-11T02:38:28.890Z,8.88
2023-05-11T02:39:07.274Z,7.80
2023-05-11T02:39:45.480Z,7.95
2023-05-11T02:40:20.217Z,8.00
2023-05-11T02:40:58.859Z,7.93
2023-05-11T02:41:33.569Z,8.13
2023-05-11T02:42:13.313Z,7.68
2023-05-11T02:42:49.901Z,7.30
2023-05-11T02:43:27.063Z,7.43
2023-05-11T02:44:06.650Z,7.38
2023-05-11T02:44:51.178Z,7.38
2023-05-11T02:45:29.484Z,7.53
2023-05-11T02:46:08.115Z,8.55
2023-05-11T02:46:43.417Z,8.18
2023-05-11T02:47:21.200Z,7.68
2023-05-11T02:47:56.345Z,7.03
2023-05-11T02:48:36.411Z,7.95
2023-05-11T02:49:11.640Z,7.75
2023-05-11T02:49:47.416Z,15.45
2023-05-11T02:50:20.926Z,8.70
2023-05-11T02:50:57.615Z,7.55
2023-05-11T02:51:36.270Z,7.43
2023-05-11T02:52:11.019Z,8.63
2023-05-11T02:52:52.708Z,7.47
2023-05-11T02:53:28.138Z,8.23
2023-05-11T02:54:01.799Z,8.63
2023-05-11T02:54:40.452Z,7.55
2023-05-11T02:55:15.355Z,8.55
2023-05-11T02:55:48.831Z,8.40
2023-05-11T02:56:23.182Z,8.00
2023-05-11T02:56:58.623Z,8.18
2023-05-11T02:57:31.958Z,8.43
2023-05-11T02:58:10.643Z,7.38
2023-05-11T02:58:45.682Z,7.57
2023-05-11T02:59:28.360Z,7.43
2023-05-11T03:00:03.888Z,8.02
2023-05-11T03:00:38.862Z,7.32
2023-05-11T03:01:13.903Z,8.68
2023-05-11T03:01:47.999Z,8.20
2023-05-11T03:02:20.915Z,8.20
2023-05-11T03:02:53.787Z,8.20
2023-05-11T03:03:29.560Z,8.45
2023-05-11T03:04:04.980Z,8.35
2023-05-11T03:04:38.764Z,7.88
2023-05-11T03:05:12.382Z,8.40
2023-05-11T03:05:45.076Z,8.77
2023-05-11T03:06:17.698Z,8.55
2023-05-11T03:06:52.007Z,7.97
2023-05-11T03:07:24.922Z,8.63
2023-05-11T03:07:59.859Z,7.93
2023-05-11T03:08:32.560Z,8.68
2023-05-11T03:09:10.242Z,9.65
2023-05-11T03:09:47.864Z,9.02
2023-05-11T03:10:21.408Z,9.50
2023-05-11T03:10:56.188Z,9.60
2023-05-11T03:11:29.357Z,8.13
2023-05-11T03:12:02.757Z,8.10
2023-05-11T03:12:39.211Z,8.70
2023-05-11T03:13:13.409Z,8.43
2023-05-11T03:13:46.722Z,7.22
2023-05-11T03:14:23.850Z,7.70
2023-05-11T03:14:56.663Z,7.47
2023-05-11T03:15:29.600Z,8.40
2023-05-11T03:16:04.042Z,7.82
2023-05-11T03:16:40.729Z,8.50
2023-05-11T03:17:15.177Z,7.13
2023-05-11T03:17:50.321Z,7.85
2023-05-11T03:18:23.671Z,8.57
2023-05-11T03:18:57.716Z,9.32
2023-05-11T03:19:33.030Z,9.05
2023-05-11T03:20:08.554Z,9.30
2023-05-11T03:20:43.412Z,9.05
2023-05-11T03:21:20.895Z,9.15
2023-05-11T03:21:54.621Z,8.40
2023-05-11T03:22:29.098Z,8.68
2023-05-11T03:23:02.363Z,9.80
2023-05-11T03:23:36.419Z,8.32
2023-05-11T03:24:10.624Z,9.68
2023-05-11T03:24:44.038Z,9.88
2023-05-11T03:25:17.539Z,10.38
2023-05-11T03:25:52.431Z,9.73
2023-05-11T03:26:28.641Z,9.55
2023-05-11T03:27:04.965Z,9.95
2023-05-11T03:27:42.503Z,9.60
2023-05-11T03:28:17.728Z,9.57
2023-05-11T03:29:01.339Z,8.35
2023-05-11T03:29:38.651Z,16.08
2023-05-11T03:30:14.168Z,13.35
2023-05-11T03:30:52.261Z,11.90
2023-05-11T03:31:25.902Z,9.90
2023-05-11T03:32:00.347Z,9.60
2023-05-11T03:32:34.254Z,10.00
2023-05-11T03:33:08.792Z,9.38
2023-05-11T03:33:41.491Z,8.68
2023-05-11T03:34:14.889Z,8.35
2023-05-11T03:34:50.788Z,9.90
2023-05-11T03:35:29.442Z,8.73
2023-05-11T03:36:04.959Z,8.30
2023-05-11T03:36:41.763Z,9.07
2023-05-11T03:37:18.007Z,9.13
2023-05-11T03:37:53.004Z,8.88
2023-05-11T03:38:30.082Z,9.48
2023-05-11T03:39:04.606Z,8.88
2023-05-11T03:39:39.842Z,8.38
2023-05-11T03:40:16.416Z,9.00
2023-05-11T03:40:56.313Z,9.68
2023-05-11T03:41:32.404Z,9.70
2023-05-11T03:42:08.204Z,9.13
2023-05-11T03:42:43.791Z,9.05
2023-05-11T03:43:19.493Z,11.75
2023-05-11T03:43:55.924Z,12.98
2023-05-11T03:44:32.020Z,10.68
2023-05-11T03:45:08.141Z,11.27
2023-05-11T03:45:44.448Z,11.95
2023-05-11T03:46:20.932Z,10.23
2023-05-11T03:46:54.925Z,10.50
2023-05-11T03:47:32.593Z,9.63
2023-05-11T03:48:07.202Z,10.25
2023-05-11T03:48:41.060Z,9.10
2023-05-11T03:49:15.369Z,9.02
2023-05-11T03:49:48.920Z,9.38
2023-05-11T03:50:22.120Z,9.30
2023-05-11T03:50:56.759Z,8.85
2023-05-11T03:51:31.942Z,8.45
2023-05-11T03:52:05.805Z,9.07
2023-05-11T03:52:40.291Z,7.93
2023-05-11T03:53:13.585Z,8.13
2023-05-11T03:53:46.580Z,8.45
2023-05-11T03:54:22.214Z,7.80
2023-05-11T03:54:55.033Z,8.52
2023-05-11T03:55:27.800Z,8.70
2023-05-11T03:56:02.001Z,8.02
2023-05-11T03:56:36.910Z,7.75
2023-05-11T03:57:09.781Z,6.95
2023-05-11T03:57:44.216Z,8.65
2023-05-11T03:58:17.351Z,7.25
2023-05-11T03:58:51.017Z,7.65
2023-05-11T03:59:25.264Z,7.35
2023-05-11T03:59:58.000Z,7.53
2023-05-11T04:00:31.053Z,8.00
2023-05-11T04:01:04.326Z,7.05
2023-05-11T04:01:38.215Z,6.72
2023-05-11T04:02:11.063Z,7.30
2023-05-11T04:02:45.315Z,7.88
2023-05-11T04:03:19.753Z,7.05
2023-05-11T04:03:53.911Z,7.30
2023-05-11T04:04:31.501Z,7.40
2023-05-11T04:05:09.352Z,6.47
2023-05-11T04:05:41.951Z,7.47
2023-05-11T04:06:18.588Z,5.85
2023-05-11T04:06:57.821Z,6.80
2023-05-11T04:07:33.059Z,5.90
2023-05-11T04:08:06.560Z,6.13
2023-05-11T04:08:40.532Z,5.80
2023-05-11T04:09:13.296Z,6.55
2023-05-11T04:09:46.258Z,5.97
2023-05-11T04:10:20.151Z,6.10
2023-05-11T04:10:53.303Z,6.43
2023-05-11T04:11:27.745Z,6.80
2023-05-11T04:12:01.747Z,6.20
2023-05-11T04:12:34.735Z,6.05
2023-05-11T04:13:07.429Z,6.47
2023-05-11T04:13:41.113Z,6.05
2023-05-11T04:14:13.875Z,6.28
2023-05-11T04:14:47.845Z,6.93
2023-05-11T04:15:21.620Z,6.18
2023-05-11T04:15:54.458Z,6.60
2023-05-11T04:16:27.174Z,5.53
2023-05-11T04:17:01.697Z,6.43
2023-05-11T04:17:34.304Z,6.65
2023-05-11T04:18:08.458Z,6.35
2023-05-11T04:18:41.314Z,6.47
2023-05-11T04:19:16.521Z,6.72
2023-05-11T04:19:49.254Z,5.70
2023-05-11T04:20:23.008Z,6.28
2023-05-11T04:20:55.983Z,6.43
2023-05-11T04:21:28.534Z,6.25
2023-05-11T04:22:02.211Z,6.03
2023-05-11T04:22:34.884Z,5.97
2023-05-11T04:23:10.298Z,5.65
2023-05-11T04:23:44.255Z,5.68
2023-05-11T04:24:16.864Z,6.00
2023-05-11T04:24:49.383Z,6.07
2023-05-11T04:25:21.998Z,5.43
2023-05-11T04:25:55.746Z,5.30
2023-05-11T04:26:28.603Z,5.82
2023-05-11T04:27:04.216Z,5.50
2023-05-11T04:27:38.010Z,5.00
2023-05-11T04:28:10.763Z,5.18
2023-05-11T04:28:43.666Z,5.43
2023-05-11T04:29:17.411Z,5.22
2023-05-11T04:29:50.006Z,5.43
2023-05-11T04:30:24.314Z,5.78
2023-05-11T04:30:57.796Z,5.90
2023-05-11T04:31:30.642Z,5.55
2023-05-11T04:32:06.622Z,5.88
2023-05-11T04:32:39.411Z,5.43
2023-05-11T04:33:14.694Z,5.95
2023-05-11T04:33:49.705Z,5.80
2023-05-11T04:34:22.811Z,5.75
2023-05-11T04:34:55.591Z,5.93
2023-05-11T04:35:31.430Z,5.22
2023-05-11T04:36:04.625Z,5.75
2023-05-11T04:36:37.230Z,5.38
2023-05-11T04:37:10.862Z,6.22
2023-05-11T04:37:44.540Z,5.65
2023-05-11T04:38:17.939Z,5.35
2023-05-11T04:38:53.406Z,5.70
2023-05-11T04:39:26.844Z,5.53
2023-05-11T04:39:59.616Z,4.68
2023-05-11T04:40:34.991Z,4.70
2023-05-11T04:41:08.950Z,4.95
2023-05-11T04:41:43.689Z,5.20
2023-05-11T04:42:16.327Z,5.00
2023-05-11T04:42:52.098Z,4.60
2023-05-11T04:43:26.614Z,5.25
2023-05-11T04:44:00.005Z,5.07
2023-05-11T04:44:33.173Z,4.72
2023-05-11T04:45:07.898Z,4.60
2023-05-11T04:45:40.707Z,5.18
2023-05-11T04:46:16.271Z,5.43
2023-05-11T04:46:50.161Z,5.18
2023-05-11T04:47:22.827Z,4.90
2023-05-11T04:47:58.713Z,5.07
2023-05-11T04:48:34.344Z,4.90
2023-05-11T04:49:07.171Z,4.40
2023-05-11T04:49:41.943Z,4.55
2023-05-11T04:50:15.514Z,4.45
2023-05-11T04:50:48.173Z,4.57
2023-05-11T04:51:22.701Z,4.50
2023-05-11T04:51:57.161Z,4.60
2023-05-11T04:52:29.709Z,4.30
2023-05-11T04:53:02.298Z,4.38
2023-05-11T04:53:36.522Z,4.57
2023-05-11T04:54:10.469Z,4.60
2023-05-11T04:54:44.088Z,4.70
2023-05-11T04:55:17.031Z,3.90
2023-05-11T04:55:49.818Z,3.83
2023-05-11T04:56:23.473Z,4.72
2023-05-11T04:56:57.057Z,4.07
2023-05-11T04:57:29.828Z,4.75
2023-05-11T04:58:04.031Z,3.90
2023-05-11T04:58:36.602Z,4.70
2023-05-11T04:59:09.114Z,4.72
2023-05-11T04:59:43.003Z,4.70
2023-05-11T05:00:17.843Z,4.40
2023-05-11T05:00:51.021Z,4.45
2023-05-11T05:01:25.905Z,4.38
2023-05-11T05:01:58.462Z,4.00
2023-05-11T05:02:31.114Z,4.97
2023-05-11T05:03:05.019Z,4.22
2023-05-11T05:03:39.958Z,3.90
2023-05-11T05:04:12.692Z,4.70
2023-05-11T05:04:46.370Z,4.35
2023-05-11T05:05:19.212Z,4.70
2023-05-11T05:05:51.798Z,4.60
2023-05-11T05:06:28.165Z,4.63
2023-05-11T05:07:00.884Z,4.65
2023-05-11T05:07:33.485Z,4.68
2023-05-11T05:08:07.629Z,4.22
2023-05-11T05:08:40.366Z,4.10
2023-05-11T05:09:13.272Z,4.35
2023-05-11T05:09:46.883Z,4.13
2023-05-11T05:10:22.101Z,4.18
2023-05-11T05:10:54.804Z,4.38
2023-05-11T05:11:28.706Z,4.18
2023-05-11T05:12:01.961Z,4.03
2023-05-11T05:12:34.608Z,4.30
2023-05-11T05:13:08.489Z,4.80
2023-05-11T05:13:41.410Z,4.00
2023-05-11T05:14:14.062Z,4.60
2023-05-11T05:14:47.660Z,4.25
2023-05-11T05:15:21.451Z,4.75
2023-05-11T05:15:54.156Z,4.45
2023-05-11T05:16:29.012Z,4.25
2023-05-11T05:17:02.785Z,4.28
2023-05-11T05:17:35.652Z,3.85
2023-05-11T05:18:10.050Z,4.43
2023-05-11T05:18:45.676Z,4.20
2023-05-11T05:19:18.410Z,4.50
2023-05-11T05:19:52.011Z,4.30
2023-05-11T05:20:24.609Z,4.32
2023-05-11T05:20:57.210Z,4.30
2023-05-11T05:21:32.432Z,4.13
2023-05-11T05:22:05.521Z,3.90
2023-05-11T05:22:38.477Z,3.80
2023-05-11T05:23:12.381Z,4.13
2023-05-11T05:23:44.887Z,4.45
2023-05-11T05:24:17.499Z,4.05
2023-05-11T05:24:50.461Z,4.00
2023-05-11T05:25:24.220Z,4.30
2023-05-11T05:25:56.791Z,3.65
2023-05-11T05:26:29.819Z,4.28
2023-05-11T05:27:04.124Z,4.20
2023-05-11T05:27:36.975Z,3.85
2023-05-11T05:28:12.877Z,4.25
2023-05-11T05:28:46.514Z,4.47
2023-05-11T05:29:21.190Z,4.13
2023-05-11T05:29:54.492Z,4.28
2023-05-11T05:30:30.499Z,3.90
2023-05-11T05:31:03.184Z,4.18
2023-05-11T05:31:36.160Z,4.10
2023-05-11T05:32:09.903Z,4.13
2023-05-11T05:32:42.731Z,4.75
2023-05-11T05:33:15.878Z,6.07
2023-05-11T05:33:51.201Z,3.88
2023-05-11T05:34:24.078Z,4.60
2023-05-11T05:34:56.657Z,4.20
2023-05-11T05:35:30.290Z,4.43
2023-05-11T05:36:03.513Z,4.82
2023-05-11T05:36:36.438Z,3.90
2023-05-11T05:37:10.098Z,4.03
2023-05-11T05:37:42.750Z,4.22
2023-05-11T05:38:15.552Z,4.60
2023-05-11T05:38:51.185Z,4.20
2023-05-11T05:39:24.792Z,4.43
2023-05-11T05:40:00.592Z,3.80
2023-05-11T05:40:37.581Z,4.47
2023-05-11T05:41:10.255Z,3.88
2023-05-11T05:41:45.941Z,4.50
2023-05-11T05:42:20.078Z,3.85
2023-05-11T05:42:53.098Z,4.40
2023-05-11T05:43:30.458Z,4.22
2023-05-11T05:44:04.148Z,4.32
2023-05-11T05:44:37.598Z,4.38
2023-05-11T05:45:14.560Z,4.53
2023-05-11T05:45:47.681Z,4.68
2023-05-11T05:46:21.795Z,4.47
2023-05-11T05:46:55.405Z,4.82
2023-05-11T05:47:30.534Z,4.70
2023-05-11T05:48:06.268Z,4.25
2023-05-11T05:48:39.840Z,4.05
2023-05-11T05:49:15.144Z,5.10
2023-05-11T05:49:48.406Z,5.18
2023-05-11T05:50:20.997Z,5.30
2023-05-11T05:50:54.846Z,5.05
2023-05-11T05:51:27.523Z,4.88
2023-05-11T05:52:00.498Z,5.38
2023-05-11T05:52:34.360Z,5.00
2023-05-11T05:53:08.138Z,4.80
2023-05-11T05:53:41.759Z,4.40
2023-05-11T05:54:16.471Z,4.53
2023-05-11T05:54:49.383Z,4.47
2023-05-11T05:55:22.583Z,5.15
2023-05-11T05:55:57.286Z,4.30
2023-05-11T05:56:30.225Z,4.93
2023-05-11T05:57:02.766Z,4.28
2023-05-11T05:57:36.778Z,4.50
2023-05-11T05:58:10.233Z,4.25
2023-05-11T05:58:43.583Z,4.07
2023-05-11T05:59:19.707Z,4.00
2023-05-11T05:59:52.371Z,4.53
2023-05-11T06:00:26.201Z,4.32
2023-05-11T06:01:08.210Z,5.10
2023-05-11T06:01:46.154Z,4.55
2023-05-11T06:02:20.612Z,4.40
2023-05-11T06:02:54.922Z,4.07
2023-05-11T06:03:31.585Z,4.50
2023-05-11T06:04:05.700Z,4.25
2023-05-11T06:04:40.175Z,4.32
2023-05-11T06:05:12.873Z,3.83
2023-05-11T06:05:49.370Z,4.55
2023-05-11T06:06:21.954Z,3.60
2023-05-11T06:06:56.120Z,4.28
2023-05-11T06:07:30.381Z,3.67
2023-05-11T06:08:43.580Z,3.67
2023-05-11T06:09:17.625Z,4.07
2023-05-11T06:09:53.110Z,3.67
2023-05-11T06:10:26.211Z,3.67
2023-05-11T06:10:59.861Z,3.80
2023-05-11T06:11:32.445Z,3.65
2023-05-11T06:12:06.266Z,3.42
2023-05-11T06:12:42.728Z,3.85
2023-05-11T06:13:15.859Z,3.58
2023-05-11T06:13:52.093Z,3.67
2023-05-11T06:14:25.043Z,3.70
2023-05-11T06:14:58.362Z,3.60
2023-05-11T06:15:32.457Z,3.95
2023-05-11T06:16:13.262Z,3.30
2023-05-11T06:16:47.076Z,3.55
2023-05-11T06:17:19.750Z,4.15
2023-05-11T06:17:53.424Z,3.70
2023-05-11T06:18:26.511Z,3.60
2023-05-11T06:19:00.932Z,2.95
2023-05-11T06:19:34.385Z,4.13
2023-05-11T06:20:11.217Z,3.55
2023-05-11T06:20:43.722Z,3.70
2023-05-11T06:21:18.881Z,3.38
2023-05-11T06:21:51.663Z,3.80
2023-05-11T06:22:25.125Z,3.40
2023-05-11T06:22:58.904Z,3.42
2023-05-11T06:23:32.047Z,3.85
2023-05-11T06:24:07.216Z,3.30
2023-05-11T06:24:41.344Z,4.25
2023-05-11T06:25:14.112Z,3.45
2023-05-11T06:25:47.857Z,3.65
2023-05-11T06:26:21.517Z,3.58
2023-05-11T06:26:55.207Z,3.65
2023-05-11T06:27:29.691Z,3.67
2023-05-11T06:28:03.658Z,3.85
2023-05-11T06:28:36.520Z,3.58
2023-05-11T06:29:13.480Z,3.58
2023-05-11T06:29:46.940Z,3.60
2023-05-11T06:30:20.809Z,3.10
2023-05-11T06:30:59.323Z,3.35
2023-05-11T06:31:34.451Z,3.40
2023-05-11T06:32:07.558Z,4.30
2023-05-11T06:32:41.405Z,3.83
2023-05-11T06:33:14.516Z,3.80
2023-05-11T06:33:47.594Z,3.33
2023-05-11T06:34:28.539Z,3.58
2023-05-11T06:35:02.762Z,3.38
2023-05-11T06:35:38.698Z,3.15
2023-05-11T06:36:18.223Z,3.42
2023-05-11T06:36:51.819Z,2.72
2023-05-11T06:37:24.479Z,2.58
2023-05-11T06:37:58.475Z,2.60
2023-05-11T06:38:31.573Z,1.90
2023-05-11T06:39:06.964Z,2.20
2023-05-11T06:39:40.253Z,2.10
2023-05-11T06:40:16.571Z,1.90
2023-05-11T06:40:54.078Z,1.90
2023-05-11T06:41:26.909Z,2.10
2023-05-11T06:42:04.246Z,1.73
2023-05-11T06:42:41.085Z,2.50
2023-05-11T06:43:15.726Z,2.50
2023-05-11T06:43:52.128Z,2.33
2023-05-11T06:44:34.289Z,3.15
2023-05-11T06:45:08.478Z,2.35
2023-05-11T06:45:42.764Z,2.42
2023-05-11T06:46:18.154Z,2.40
2023-05-11T06:46:52.276Z,2.30
2023-05-11T06:47:25.360Z,2.38
2023-05-11T06:47:58.183Z,2.15
2023-05-11T06:48:32.123Z,2.00
2023-05-11T06:49:05.036Z,2.20
2023-05-11T06:49:38.844Z,2.17
2023-05-11T06:50:11.877Z,2.03
2023-05-11T06:50:47.172Z,1.92
2023-05-11T06:51:22.108Z,2.13
2023-05-11T06:51:54.885Z,2.55
2023-05-11T06:52:29.488Z,2.60
2023-05-11T06:53:02.430Z,2.45
2023-05-11T06:53:35.720Z,2.75
2023-05-11T06:54:09.666Z,2.83
2023-05-11T06:54:42.932Z,2.30
2023-05-11T06:55:16.904Z,2.63
2023-05-11T06:55:49.743Z,2.40
2023-05-11T06:56:22.731Z,2.03
2023-05-11T06:56:56.529Z,2.55
2023-05-11T06:57:29.331Z,2.50
2023-05-11T06:58:02.236Z,2.53
2023-05-11T06:58:36.046Z,1.98
2023-05-11T06:59:08.802Z,2.20
2023-05-11T06:59:42.615Z,2.20
2023-05-11T07:00:16.154Z,2.33
2023-05-11T07:00:50.325Z,2.10
2023-05-11T07:01:23.269Z,2.20
2023-05-11T07:01:56.346Z,2.00
2023-05-11T07:02:30.396Z,1.92
2023-05-11T07:03:03.339Z,2.08
2023-05-11T07:03:37.485Z,2.15
2023-05-11T07:04:10.426Z,2.40
2023-05-11T07:04:43.366Z,2.00
2023-05-11T07:05:16.301Z,2.55
2023-05-11T07:05:51.512Z,2.30
2023-05-11T07:06:24.394Z,2.17
2023-05-11T07:06:57.391Z,2.15
2023-05-11T07:07:31.350Z,2.17
2023-05-11T07:08:05.000Z,2.30
2023-05-11T07:08:37.892Z,2.00
2023-05-11T07:09:11.925Z,2.70
2023-05-11T07:09:44.879Z,2.50
2023-05-11T07:10:18.029Z,2.50
2023-05-11T07:10:52.222Z,2.85
2023-05-11T07:11:25.785Z,2.80
2023-05-11T07:11:59.673Z,3.10
2023-05-11T07:12:32.470Z,3.20
2023-05-11T07:13:05.705Z,3.45
2023-05-11T07:13:39.609Z,3.10
2023-05-11T07:14:12.460Z,3.05
2023-05-11T07:14:46.468Z,3.03
2023-05-11T07:15:19.310Z,3.08
2023-05-11T07:15:52.109Z,2.92
2023-05-11T07:16:25.996Z,2.72
2023-05-11T07:16:58.949Z,2.67
2023-05-11T07:17:31.969Z,2.67
2023-05-11T07:18:05.994Z,3.00
2023-05-11T07:18:38.879Z,3.15
2023-05-11T07:19:11.913Z,2.70
2023-05-11T07:19:45.922Z,3.40
2023-05-11T07:20:18.920Z,3.13
2023-05-11T07:20:53.364Z,3.38
2023-05-11T07:21:27.335Z,3.03
2023-05-11T07:22:01.935Z,2.80
2023-05-11T07:22:34.828Z,3.00
2023-05-11T07:23:08.617Z,2.88
2023-05-11T07:23:41.849Z,2.95
2023-05-11T07:24:15.823Z,2.70
2023-05-11T07:24:48.598Z,2.60
2023-05-11T07:25:21.445Z,2.80
2023-05-11T07:25:57.590Z,2.88
2023-05-11T07:26:30.480Z,3.17
2023-05-11T07:27:03.367Z,2.80
2023-05-11T07:27:37.266Z,2.95
2023-05-11T07:28:10.068Z,3.05
2023-05-11T07:28:44.005Z,2.72
2023-05-11T07:29:16.942Z,2.38
2023-05-11T07:29:50.775Z,3.05
2023-05-11T07:30:24.624Z,3.63
2023-05-11T07:30:57.870Z,2.67
2023-05-11T07:31:30.758Z,2.83
2023-05-11T07:32:04.671Z,2.70
2023-05-11T07:32:37.490Z,3.05
2023-05-11T07:33:11.419Z,3.10
2023-05-11T07:33:44.263Z,3.08
2023-05-11T07:34:17.083Z,2.90
2023-05-11T07:34:50.936Z,2.92
2023-05-11T07:35:24.332Z,2.85
2023-05-11T07:35:59.678Z,3.38
2023-05-11T07:36:33.202Z,2.75
2023-05-11T07:37:08.439Z,3.28
2023-05-11T07:37:43.984Z,2.63
2023-05-11T07:38:18.465Z,2.65
2023-05-11T07:38:51.414Z,2.60
2023-05-11T07:39:24.250Z,3.17
2023-05-11T07:39:58.247Z,3.40
2023-05-11T07:40:31.346Z,2.78
2023-05-11T07:41:07.114Z,2.97
2023-05-11T07:41:40.812Z,3.00
2023-05-11T07:42:14.693Z,2.60
2023-05-11T07:42:47.450Z,2.55
2023-05-11T07:43:21.405Z,2.65
2023-05-11T07:43:54.239Z,2.88
2023-05-11T07:44:28.087Z,2.67